Time;durP1;ratioP1;P1;durP2;ratioP2;P2;SDS_P1;SDS_P2;PMS_P1;PMS_P2;Temp;Humidity;BMP_temperature;BMP_pressure;BME280_temperature;BME280_humidity;BME280_pressure;Samples;Min_cycle;Max_cycle;Signal;HPM_P1;HPM_P2
2023/05/27 00:01:01;;;;;;;0.40;0.40;;;;;;;;;;5056015;28;20288;-88
2023/05/27 00:03:27;;;;;;;0.47;0.47;;;;;;;;;;5055582;28;20275;-86
2023/05/27 00:05:53;;;;;;;0.30;0.30;;;;;;;;;;5055764;28;20453;-88
2023/05/27 00:08:19;;;;;;;0.40;0.40;;;;;;;;;;5055608;28;20213;-89
2023/05/27 00:10:46;;;;;;;0.40;0.40;;;;;;;;;;5055889;28;20206;-87
2023/05/27 00:13:12;;;;;;;0.50;0.50;;;;;;;;;;5055988;28;20215;-86
2023/05/27 00:15:41;;;;;;;0.50;0.50;;;;;;;;;;5057555;28;20583;-85
2023/05/27 00:18:08;;;;;;;0.30;0.30;;;;;;;;;;5075145;28;20198;-88
2023/05/27 00:20:34;;;;;;;0.40;0.40;;;;;;;;;;5075109;28;20676;-86
2023/05/27 00:23:00;;;;;;;0.40;0.40;;;;;;;;;;5055240;28;20318;-86
2023/05/27 00:25:27;;;;;;;0.30;0.30;;;;;;;;;;5056425;28;20261;-87
2023/05/27 00:27:53;;;;;;;0.30;0.30;;;;;;;;;;5058956;28;20220;-86
2023/05/27 00:30:19;;;;;;;0.40;0.40;;;;;;;;;;5058063;28;20207;-85
2023/05/27 00:32:45;;;;;;;0.40;0.40;;;;;;;;;;5056814;28;20214;-87
2023/05/27 00:35:11;;;;;;;0.50;0.50;;;;;;;;;;5057665;28;20241;-86
2023/05/27 00:37:37;;;;;;;0.47;0.47;;;;;;;;;;5057634;28;20593;-87
2023/05/27 00:40:04;;;;;;;0.30;0.30;;;;;;;;;;5057712;28;20270;-88
2023/05/27 00:42:30;;;;;;;0.43;0.43;;;;;;;;;;5058605;28;20266;-87
2023/05/27 00:44:56;;;;;;;0.30;0.30;;;;;;;;;;5057342;28;20195;-90
2023/05/27 00:47:23;;;;;;;0.37;0.37;;;;;;;;;;5058954;28;20187;-86
2023/05/27 00:49:49;;;;;;;0.40;0.40;;;;;;;;;;5057045;28;20199;-87
2023/05/27 00:52:15;;;;;;;0.30;0.30;;;;;;;;;;5057569;28;20708;-87
2023/05/27 00:54:41;;;;;;;0.50;0.50;;;;;;;;;;5063313;28;20175;-88
2023/05/27 00:57:07;;;;;;;0.40;0.40;;;;;;;;;;5064370;28;20622;-86
2023/05/27 00:59:33;;;;;;;0.40;0.40;;;;;;;;;;5059388;28;20230;-85
2023/05/27 01:01:59;;;;;;;0.30;0.30;;;;;;;;;;5058484;28;20580;-86
2023/05/27 01:04:26;;;;;;;0.30;0.30;;;;;;;;;;5058267;28;20702;-86
2023/05/27 01:07:07;;;;;;;0.30;0.30;;;;;;;;;;5061050;28;20179;-86
2023/05/27 01:09:40;;;;;;;0.50;0.50;;;;;;;;;;5059266;28;20210;-86
2023/05/27 01:12:14;;;;;;;0.40;0.40;;;;;;;;;;5063854;28;20268;-88
2023/05/27 01:14:42;;;;;;;0.30;0.30;;;;;;;;;;5077162;28;20254;-87
2023/05/27 01:17:09;;;;;;;0.50;0.50;;;;;;;;;;5076767;28;20228;-87
2023/05/27 01:19:37;;;;;;;0.30;0.30;;;;;;;;;;5076728;28;20195;-87
2023/05/27 01:22:03;;;;;;;0.30;0.30;;;;;;;;;;5077092;28;20163;-89
2023/05/27 01:24:29;;;;;;;0.30;0.30;;;;;;;;;;5077274;28;20172;-87
2023/05/27 01:26:56;;;;;;;0.40;0.40;;;;;;;;;;5076974;28;20163;-87
2023/05/27 01:29:22;;;;;;;0.30;0.30;;;;;;;;;;5076797;28;20179;-86
2023/05/27 01:32:02;;;;;;;0.50;0.50;;;;;;;;;;5076898;28;20231;-86
2023/05/27 01:34:35;;;;;;;0.30;0.30;;;;;;;;;;5077126;28;20179;-87
2023/05/27 01:37:05;;;;;;;0.50;0.50;;;;;;;;;;5077177;28;20175;-87
2023/05/27 01:39:32;;;;;;;0.40;0.40;;;;;;;;;;5077206;28;20214;-87
2023/05/27 01:42:01;;;;;;;0.40;0.40;;;;;;;;;;5075900;28;20167;-86
2023/05/27 01:44:27;;;;;;;0.40;0.40;;;;;;;;;;5076604;28;20205;-86
2023/05/27 01:46:58;;;;;;;0.47;0.47;;;;;;;;;;5076883;28;20186;-86
2023/05/27 01:49:24;;;;;;;0.40;0.40;;;;;;;;;;5071071;28;20189;-86
2023/05/27 01:51:50;;;;;;;0.40;0.40;;;;;;;;;;5059301;28;20175;-86
2023/05/27 01:54:16;;;;;;;0.40;0.40;;;;;;;;;;5057133;28;20612;-86
2023/05/27 01:56:42;;;;;;;0.40;0.40;;;;;;;;;;5058258;28;20163;-86
2023/05/27 01:59:08;;;;;;;0.67;0.67;;;;;;;;;;5057616;28;20317;-88
2023/05/27 02:01:34;;;;;;;0.47;0.47;;;;;;;;;;5053796;28;20179;-87
2023/05/27 02:04:00;;;;;;;0.37;0.37;;;;;;;;;;5056140;28;20175;-86
2023/05/27 02:06:27;;;;;;;0.40;0.40;;;;;;;;;;5058057;28;20269;-87
2023/05/27 02:08:53;;;;;;;0.40;0.40;;;;;;;;;;5055221;28;20175;-87
2023/05/27 02:11:19;;;;;;;0.40;0.40;;;;;;;;;;5054233;28;20553;-87
2023/05/27 02:13:45;;;;;;;0.40;0.40;;;;;;;;;;5055572;28;20207;-85
2023/05/27 02:16:12;;;;;;;0.40;0.40;;;;;;;;;;5060647;28;20179;-87
2023/05/27 02:18:40;;;;;;;0.40;0.40;;;;;;;;;;5076964;28;20178;-89
2023/05/27 02:21:06;;;;;;;0.40;0.40;;;;;;;;;;5077156;28;20259;-87
2023/05/27 02:23:33;;;;;;;0.40;0.40;;;;;;;;;;5066225;28;20549;-86
2023/05/27 02:26:03;;;;;;;0.30;0.30;;;;;;;;;;5058262;28;20171;-86
2023/05/27 02:28:29;;;;;;;0.43;0.43;;;;;;;;;;5075864;28;20183;-86
2023/05/27 02:30:55;;;;;;;0.40;0.40;;;;;;;;;;5075324;28;20199;-87
2023/05/27 02:33:21;;;;;;;0.40;0.40;;;;;;;;;;5066756;28;20218;-85
2023/05/27 02:35:47;;;;;;;0.50;0.50;;;;;;;;;;5055870;28;20549;-86
2023/05/27 02:38:13;;;;;;;0.40;0.40;;;;;;;;;;5056982;28;20175;-85
2023/05/27 02:40:39;;;;;;;0.40;0.40;;;;;;;;;;5054525;28;20199;-85
2023/05/27 02:43:05;;;;;;;0.40;0.40;;;;;;;;;;5054742;28;20178;-85
2023/05/27 02:45:31;;;;;;;0.50;0.50;;;;;;;;;;5054561;28;20179;-85
2023/05/27 02:48:01;;;;;;;0.50;0.50;;;;;;;;;;5053234;28;20194;-85
2023/05/27 02:50:27;;;;;;;0.50;0.50;;;;;;;;;;5054237;28;20202;-86
2023/05/27 02:52:53;;;;;;;0.50;0.50;;;;;;;;;;5054303;28;20215;-86
2023/05/27 02:55:19;;;;;;;0.40;0.40;;;;;;;;;;5056162;28;20175;-86
2023/05/27 02:57:45;;;;;;;0.47;0.47;;;;;;;;;;5054867;28;20240;-85
2023/05/27 03:00:12;;;;;;;0.60;0.60;;;;;;;;;;5054406;28;20214;-86
2023/05/27 03:02:38;;;;;;;0.40;0.40;;;;;;;;;;5055178;28;20282;-86
2023/05/27 03:05:04;;;;;;;0.40;0.40;;;;;;;;;;5055696;28;20186;-86
2023/05/27 03:07:30;;;;;;;0.60;0.60;;;;;;;;;;5055690;28;20175;-86
2023/05/27 03:09:57;;;;;;;0.50;0.50;;;;;;;;;;5054932;28;20345;-86
2023/05/27 03:12:23;;;;;;;0.57;0.57;;;;;;;;;;5067759;28;20230;-86
2023/05/27 03:14:49;;;;;;;0.50;0.50;;;;;;;;;;5070645;28;20292;-86
2023/05/27 03:17:15;;;;;;;0.50;0.50;;;;;;;;;;5065404;28;20175;-85
2023/05/27 03:19:41;;;;;;;0.57;0.57;;;;;;;;;;5073539;28;20195;-88
2023/05/27 03:22:09;;;;;;;0.40;0.40;;;;;;;;;;5066503;28;20175;-85
2023/05/27 03:24:35;;;;;;;0.50;0.50;;;;;;;;;;5053900;28;20190;-85
2023/05/27 03:27:01;;;;;;;0.53;0.53;;;;;;;;;;5052698;28;20725;-87
2023/05/27 03:29:27;;;;;;;0.60;0.60;;;;;;;;;;5053185;28;20179;-87
2023/05/27 03:31:53;;;;;;;0.50;0.50;;;;;;;;;;5053566;28;20199;-87
2023/05/27 03:34:19;;;;;;;0.50;0.50;;;;;;;;;;5054195;28;20178;-86
2023/05/27 03:36:46;;;;;;;0.50;0.50;;;;;;;;;;5054292;28;20179;-86
2023/05/27 03:39:12;;;;;;;0.53;0.53;;;;;;;;;;5053971;28;20180;-86
2023/05/27 03:41:39;;;;;;;0.40;0.40;;;;;;;;;;5054982;28;20207;-86
2023/05/27 03:44:05;;;;;;;0.50;0.50;;;;;;;;;;5074847;28;20190;-88
2023/05/27 03:46:31;;;;;;;0.50;0.50;;;;;;;;;;5073977;28;20175;-88
2023/05/27 03:48:57;;;;;;;0.60;0.60;;;;;;;;;;5075140;28;20183;-89
2023/05/27 03:51:23;;;;;;;0.60;0.60;;;;;;;;;;5075253;28;20195;-88
2023/05/27 03:53:49;;;;;;;0.50;0.50;;;;;;;;;;5074940;28;20295;-88
2023/05/27 03:56:15;;;;;;;0.60;0.60;;;;;;;;;;5060402;28;20174;-86
2023/05/27 03:58:41;;;;;;;0.50;0.50;;;;;;;;;;5056195;28;20171;-85
2023/05/27 04:01:08;;;;;;;0.60;0.60;;;;;;;;;;5057920;28;20213;-86
2023/05/27 04:03:34;;;;;;;0.50;0.50;;;;;;;;;;5058506;28;20198;-86
2023/05/27 04:06:00;;;;;;;0.40;0.40;;;;;;;;;;5058565;28;20380;-86
2023/05/27 04:08:27;;;;;;;0.50;0.50;;;;;;;;;;5057429;28;20685;-87
2023/05/27 04:10:53;;;;;;;0.40;0.40;;;;;;;;;;5056501;28;20689;-86
2023/05/27 04:13:19;;;;;;;0.40;0.40;;;;;;;;;;5056955;28;20301;-86
2023/05/27 04:15:46;;;;;;;0.50;0.50;;;;;;;;;;5057395;28;20252;-86
2023/05/27 04:18:12;;;;;;;0.40;0.40;;;;;;;;;;5057771;28;20226;-86
2023/05/27 04:20:40;;;;;;;0.50;0.50;;;;;;;;;;5056396;28;20195;-86
2023/05/27 04:23:06;;;;;;;0.50;0.50;;;;;;;;;;5057957;28;20183;-86
2023/05/27 04:25:32;;;;;;;0.57;0.57;;;;;;;;;;5057131;28;20258;-86
2023/05/27 04:27:58;;;;;;;0.50;0.50;;;;;;;;;;5058388;28;20202;-86
2023/05/27 04:30:24;;;;;;;0.50;0.50;;;;;;;;;;5056923;28;20191;-86
2023/05/27 04:32:50;;;;;;;0.40;0.40;;;;;;;;;;5058995;28;20234;-85
2023/05/27 04:35:17;;;;;;;0.60;0.60;;;;;;;;;;5060282;28;20576;-86
2023/05/27 04:37:44;;;;;;;0.40;0.40;;;;;;;;;;5059595;28;20171;-86
2023/05/27 04:40:10;;;;;;;0.50;0.50;;;;;;;;;;5059847;28;20195;-86
2023/05/27 04:42:36;;;;;;;0.53;0.53;;;;;;;;;;5059586;28;20183;-87
2023/05/27 04:45:06;;;;;;;0.50;0.50;;;;;;;;;;5062179;28;20666;-87
2023/05/27 04:47:37;;;;;;;0.47;0.47;;;;;;;;;;5062550;28;20171;-85
2023/05/27 04:50:03;;;;;;;0.40;0.40;;;;;;;;;;5063439;28;20724;-87
2023/05/27 04:52:29;;;;;;;0.37;0.37;;;;;;;;;;5067596;28;20266;-88
2023/05/27 04:54:55;;;;;;;0.40;0.40;;;;;;;;;;5074582;28;20201;-87
2023/05/27 04:57:22;;;;;;;0.50;0.50;;;;;;;;;;5076205;28;20183;-86
2023/05/27 05:02:34;;;;;;;0.43;0.43;;;;;;;;;;5055780;28;20245;-86
2023/05/27 05:05:01;;;;;;;0.30;0.30;;;;;;;;;;5070464;28;20172;-85
2023/05/27 05:07:27;;;;;;;0.30;0.30;;;;;;;;;;5056074;28;20175;-88
2023/05/27 05:09:53;;;;;;;0.30;0.30;;;;;;;;;;5053231;28;20198;-86
2023/05/27 05:12:19;;;;;;;0.53;0.53;;;;;;;;;;5054963;28;20211;-86
2023/05/27 05:14:44;;;;;;;0.40;0.40;;;;;;;;;;5054753;28;20182;-86
2023/05/27 05:17:10;;;;;;;0.30;0.30;;;;;;;;;;5054845;28;20199;-88
2023/05/27 05:19:36;;;;;;;0.20;0.20;;;;;;;;;;5054745;28;20229;-88
2023/05/27 05:22:02;;;;;;;0.30;0.30;;;;;;;;;;5055174;28;20588;-86
2023/05/27 05:24:28;;;;;;;0.50;0.50;;;;;;;;;;5056359;28;20182;-86
2023/05/27 05:26:54;;;;;;;0.40;0.40;;;;;;;;;;5057026;28;20198;-86
2023/05/27 05:29:20;;;;;;;0.33;0.33;;;;;;;;;;5056523;28;20254;-87
2023/05/27 05:31:46;;;;;;;0.40;0.40;;;;;;;;;;5056966;28;20179;-86
2023/05/27 05:34:13;;;;;;;0.30;0.30;;;;;;;;;;5057252;28;20593;-87
2023/05/27 05:36:39;;;;;;;0.33;0.33;;;;;;;;;;5056525;28;20266;-88
2023/05/27 05:39:05;;;;;;;0.30;0.30;;;;;;;;;;5054174;28;20171;-90
2023/05/27 05:41:31;;;;;;;0.40;0.40;;;;;;;;;;5055223;28;20198;-87
2023/05/27 05:43:57;;;;;;;0.20;0.20;;;;;;;;;;5061714;28;20171;-88
2023/05/27 05:46:23;;;;;;;0.33;0.33;;;;;;;;;;5064562;28;20771;-86
2023/05/27 05:48:53;;;;;;;0.30;0.30;;;;;;;;;;5056664;28;20198;-85
2023/05/27 05:51:19;;;;;;;0.30;0.30;;;;;;;;;;5057324;28;20325;-86
2023/05/27 05:53:46;;;;;;;0.40;0.40;;;;;;;;;;5055732;28;20225;-86
2023/05/27 05:56:11;;;;;;;0.40;0.40;;;;;;;;;;5055193;28;20171;-86
2023/05/27 05:58:37;;;;;;;0.40;0.40;;;;;;;;;;5058129;28;20177;-86
2023/05/27 06:01:04;;;;;;;0.30;0.30;;;;;;;;;;5058042;28;20217;-87
2023/05/27 06:06:05;;;;;;;0.40;0.40;;;;;;;;;;5095941;28;20205;-85
2023/05/27 06:08:31;;;;;;;0.30;0.30;;;;;;;;;;5096752;28;20174;-84
2023/05/27 06:10:57;;;;;;;0.40;0.40;;;;;;;;;;5096200;28;20194;-82
2023/05/27 06:13:23;;;;;;;0.30;0.30;;;;;;;;;;5095950;28;20220;-85
2023/05/27 06:15:50;;;;;;;0.40;0.40;;;;;;;;;;5097486;28;20170;-84
2023/05/27 06:18:15;;;;;;;0.30;0.30;;;;;;;;;;5097538;28;20785;-83
2023/05/27 06:20:41;;;;;;;0.30;0.30;;;;;;;;;;5096506;28;20251;-80
2023/05/27 06:23:07;;;;;;;0.30;0.30;;;;;;;;;;5096658;28;20199;-82
2023/05/27 06:25:33;;;;;;;0.30;0.30;;;;;;;;;;5096870;28;20260;-82
2023/05/27 06:27:59;;;;;;;0.30;0.30;;;;;;;;;;5096877;28;20602;-81
2023/05/27 06:30:25;;;;;;;0.30;0.30;;;;;;;;;;5096190;28;20280;-81
2023/05/27 06:32:52;;;;;;;0.30;0.30;;;;;;;;;;5097043;28;20208;-82
2023/05/27 06:35:18;;;;;;;0.43;0.43;;;;;;;;;;5095997;28;20169;-82
2023/05/27 06:37:44;;;;;;;0.30;0.30;;;;;;;;;;5097001;28;20185;-83
2023/05/27 06:40:11;;;;;;;0.50;0.50;;;;;;;;;;5096712;28;20197;-83
2023/05/27 06:42:37;;;;;;;0.50;0.50;;;;;;;;;;5097443;28;20193;-83
2023/05/27 06:45:03;;;;;;;0.30;0.30;;;;;;;;;;5105299;28;20187;-80
2023/05/27 06:47:29;;;;;;;0.50;0.50;;;;;;;;;;5117259;28;20177;-80
2023/05/27 06:49:55;;;;;;;0.40;0.40;;;;;;;;;;5116970;28;20277;-79
2023/05/27 06:52:21;;;;;;;0.27;0.27;;;;;;;;;;5117306;28;20193;-81
2023/05/27 06:54:48;;;;;;;0.30;0.30;;;;;;;;;;5117180;28;20157;-80
2023/05/27 06:57:14;;;;;;;0.40;0.40;;;;;;;;;;5117498;28;20169;-80
2023/05/27 06:59:40;;;;;;;0.50;0.50;;;;;;;;;;5116691;28;20193;-80
2023/05/27 07:02:07;;;;;;;0.33;0.33;;;;;;;;;;5117187;28;20158;-80
2023/05/27 07:04:33;;;;;;;0.40;0.40;;;;;;;;;;5103271;28;20201;-81
2023/05/27 07:06:59;;;;;;;0.40;0.40;;;;;;;;;;5094535;28;20258;-81
2023/05/27 07:09:25;;;;;;;0.30;0.30;;;;;;;;;;5094432;28;20640;-81
2023/05/27 07:11:51;;;;;;;0.30;0.30;;;;;;;;;;5095923;28;20223;-82
2023/05/27 07:14:17;;;;;;;0.30;0.30;;;;;;;;;;5099412;28;20176;-82
2023/05/27 07:16:43;;;;;;;0.30;0.30;;;;;;;;;;5110942;28;20162;-81
2023/05/27 07:19:09;;;;;;;0.37;0.37;;;;;;;;;;5109394;28;20177;-80
2023/05/27 07:21:36;;;;;;;0.30;0.30;;;;;;;;;;5103712;28;20177;-82
2023/05/27 07:24:05;;;;;;;0.30;0.30;;;;;;;;;;5094644;28;20182;-82
2023/05/27 07:26:32;;;;;;;0.30;0.30;;;;;;;;;;5095608;28;20227;-80
2023/05/27 07:28:58;;;;;;;0.30;0.30;;;;;;;;;;5095418;28;20280;-81
2023/05/27 07:31:25;;;;;;;0.30;0.30;;;;;;;;;;5099722;28;20215;-79
2023/05/27 07:33:51;;;;;;;0.37;0.37;;;;;;;;;;5102256;28;20217;-81
2023/05/27 07:36:17;;;;;;;0.30;0.30;;;;;;;;;;5100889;28;20178;-81
2023/05/27 07:38:43;;;;;;;0.30;0.30;;;;;;;;;;5101912;28;20184;-81
2023/05/27 07:41:09;;;;;;;0.30;0.30;;;;;;;;;;5100990;28;20189;-81
2023/05/27 07:43:35;;;;;;;0.30;0.30;;;;;;;;;;5106960;28;20213;-81
2023/05/27 07:46:01;;;;;;;0.23;0.23;;;;;;;;;;5105591;28;20213;-81
2023/05/27 07:48:28;;;;;;;0.30;0.30;;;;;;;;;;5102614;28;20174;-82
2023/05/27 07:50:54;;;;;;;0.20;0.20;;;;;;;;;;5102681;28;20201;-82
2023/05/27 07:53:20;;;;;;;0.30;0.30;;;;;;;;;;5101670;28;20229;-82
2023/05/27 07:55:46;;;;;;;0.27;0.27;;;;;;;;;;5101557;28;20174;-82
2023/05/27 07:58:12;;;;;;;0.23;0.23;;;;;;;;;;5101171;28;20635;-82
2023/05/27 08:00:38;;;;;;;0.40;0.40;;;;;;;;;;5100310;28;20280;-82
2023/05/27 08:03:04;;;;;;;0.20;0.20;;;;;;;;;;5100665;28;20736;-81
2023/05/27 08:05:30;;;;;;;0.20;0.20;;;;;;;;;;5103076;28;20190;-81
2023/05/27 08:07:56;;;;;;;0.30;0.30;;;;;;;;;;5101546;28;20554;-83
2023/05/27 08:10:22;;;;;;;0.30;0.30;;;;;;;;;;5100200;28;20200;-82
2023/05/27 08:12:48;;;;;;;0.30;0.30;;;;;;;;;;5101205;28;20680;-83
2023/05/27 08:15:14;;;;;;;0.30;0.30;;;;;;;;;;5103720;28;20181;-83
2023/05/27 08:17:42;;;;;;;0.33;0.33;;;;;;;;;;5099991;28;20178;-82
2023/05/27 08:20:08;;;;;;;0.40;0.40;;;;;;;;;;5098252;28;20312;-81
2023/05/27 08:22:34;;;;;;;0.30;0.30;;;;;;;;;;5098969;28;20188;-83
2023/05/27 08:25:00;;;;;;;0.40;0.40;;;;;;;;;;5098770;28;20243;-82
2023/05/27 08:27:44;;;;;;;0.50;0.50;;;;;;;;;;5098371;28;20170;-83
2023/05/27 08:30:10;;;;;;;0.30;0.30;;;;;;;;;;5099329;28;20274;-83
2023/05/27 08:32:36;;;;;;;0.30;0.30;;;;;;;;;;5100055;28;20209;-82
2023/05/27 08:35:02;;;;;;;0.33;0.33;;;;;;;;;;5100219;28;20173;-83
2023/05/27 08:37:28;;;;;;;0.37;0.37;;;;;;;;;;5099476;28;20226;-84
2023/05/27 08:39:55;;;;;;;0.30;0.30;;;;;;;;;;5099789;28;20209;-83
2023/05/27 08:42:21;;;;;;;0.40;0.40;;;;;;;;;;5098626;28;20200;-83
2023/05/27 08:44:47;;;;;;;0.37;0.37;;;;;;;;;;5098293;28;20514;-84
2023/05/27 08:47:14;;;;;;;0.20;0.20;;;;;;;;;;5099134;28;20184;-84
2023/05/27 08:49:41;;;;;;;0.40;0.40;;;;;;;;;;5098721;28;20193;-82
2023/05/27 08:52:06;;;;;;;0.40;0.40;;;;;;;;;;5099257;28;20747;-83
2023/05/27 08:54:33;;;;;;;0.30;0.30;;;;;;;;;;5099289;28;20184;-84
2023/05/27 08:57:00;;;;;;;0.30;0.30;;;;;;;;;;5089558;28;20648;-83
2023/05/27 08:59:26;;;;;;;0.40;0.40;;;;;;;;;;5089322;28;20185;-83
2023/05/27 09:01:52;;;;;;;0.23;0.23;;;;;;;;;;5098267;28;20192;-83
2023/05/27 09:04:18;;;;;;;0.37;0.37;;;;;;;;;;5098137;28;20338;-82
2023/05/27 09:06:44;;;;;;;0.30;0.30;;;;;;;;;;5098749;28;20215;-84
2023/05/27 09:09:11;;;;;;;0.40;0.40;;;;;;;;;;5094667;28;20185;-83
2023/05/27 09:11:39;;;;;;;0.40;0.40;;;;;;;;;;5083478;28;20276;-83
2023/05/27 09:14:05;;;;;;;0.40;0.40;;;;;;;;;;5094457;28;20618;-82
2023/05/27 09:16:32;;;;;;;0.30;0.30;;;;;;;;;;5098146;28;20644;-83
2023/05/27 09:18:58;;;;;;;0.30;0.30;;;;;;;;;;5094005;28;20687;-82
2023/05/27 09:21:27;;;;;;;0.30;0.30;;;;;;;;;;5103067;28;20224;-81
2023/05/27 09:23:57;;;;;;;0.37;0.37;;;;;;;;;;5105547;28;20182;-84
2023/05/27 09:26:25;;;;;;;0.40;0.40;;;;;;;;;;5110939;28;20177;-83
2023/05/27 09:28:50;;;;;;;0.30;0.30;;;;;;;;;;5100703;28;20174;-83
2023/05/27 09:31:17;;;;;;;0.30;0.30;;;;;;;;;;5108940;28;20186;-84
2023/05/27 09:33:43;;;;;;;0.30;0.30;;;;;;;;;;5107769;28;20663;-82
2023/05/27 09:36:09;;;;;;;0.30;0.30;;;;;;;;;;5103366;28;20262;-83
2023/05/27 09:38:36;;;;;;;0.30;0.30;;;;;;;;;;5093830;28;20228;-83
2023/05/27 09:41:03;;;;;;;0.40;0.40;;;;;;;;;;5096640;28;20202;-82
2023/05/27 09:43:29;;;;;;;0.30;0.30;;;;;;;;;;5097959;28;20158;-81
2023/05/27 09:46:01;;;;;;;0.30;0.30;;;;;;;;;;5097744;28;20167;-81
2023/05/27 09:48:29;;;;;;;0.40;0.40;;;;;;;;;;5097829;28;20162;-81
2023/05/27 09:50:57;;;;;;;0.20;0.20;;;;;;;;;;5094620;28;20243;-83
2023/05/27 09:53:24;;;;;;;0.30;0.30;;;;;;;;;;5081120;28;20406;-83
2023/05/27 09:55:50;;;;;;;0.40;0.40;;;;;;;;;;5078981;28;20236;-84
2023/05/27 09:58:17;;;;;;;0.30;0.30;;;;;;;;;;5080470;28;20184;-83
2023/05/27 10:00:44;;;;;;;0.40;0.40;;;;;;;;;;5078993;28;20565;-83
2023/05/27 10:03:11;;;;;;;0.30;0.30;;;;;;;;;;5079129;28;20176;-84
2023/05/27 10:05:37;;;;;;;0.40;0.40;;;;;;;;;;5079147;28;20194;-83
2023/05/27 10:08:03;;;;;;;0.30;0.30;;;;;;;;;;5078037;28;20175;-82
2023/05/27 10:10:30;;;;;;;0.23;0.23;;;;;;;;;;5078040;28;20669;-83
2023/05/27 10:12:57;;;;;;;0.30;0.30;;;;;;;;;;5078339;28;20754;-83
2023/05/27 10:15:24;;;;;;;0.30;0.30;;;;;;;;;;5078144;28;20177;-83
2023/05/27 10:17:50;;;;;;;0.40;0.40;;;;;;;;;;5078674;28;20178;-83
2023/05/27 10:20:26;;;;;;;0.37;0.37;;;;;;;;;;5077595;28;20255;-83
2023/05/27 10:22:52;;;;;;;0.30;0.30;;;;;;;;;;5078044;28;20563;-84
2023/05/27 10:25:18;;;;;;;0.40;0.40;;;;;;;;;;5077562;28;20649;-83
2023/05/27 10:27:45;;;;;;;0.37;0.37;;;;;;;;;;5077783;28;20174;-83
2023/05/27 10:30:12;;;;;;;0.50;0.50;;;;;;;;;;5074922;28;20285;-84
2023/05/27 10:32:50;;;;;;;0.30;0.30;;;;;;;;;;5077122;28;20681;-83
2023/05/27 10:35:17;;;;;;;0.30;0.30;;;;;;;;;;5079797;28;20229;-81
2023/05/27 10:37:44;;;;;;;0.30;0.30;;;;;;;;;;5097124;28;20158;-80
2023/05/27 10:40:10;;;;;;;0.30;0.30;;;;;;;;;;5096537;28;20182;-81
2023/05/27 10:42:36;;;;;;;0.30;0.30;;;;;;;;;;5097092;28;20197;-80
2023/05/27 10:45:07;;;;;;;0.37;0.37;;;;;;;;;;5094036;28;20179;-82
2023/05/27 10:47:36;;;;;;;0.33;0.33;;;;;;;;;;5080342;28;20655;-84
2023/05/27 10:50:11;;;;;;;0.20;0.20;;;;;;;;;;5079666;28;20191;-83
2023/05/27 10:52:38;;;;;;;0.30;0.30;;;;;;;;;;5080220;28;20219;-83
2023/05/27 10:55:06;;;;;;;0.30;0.30;;;;;;;;;;5079737;28;20179;-83
2023/05/27 10:57:32;;;;;;;0.30;0.30;;;;;;;;;;5081112;28;20182;-84
2023/05/27 11:00:01;;;;;;;0.30;0.30;;;;;;;;;;5080422;28;20612;-83
2023/05/27 11:02:34;;;;;;;0.30;0.30;;;;;;;;;;5081652;28;20560;-85
2023/05/27 11:05:00;;;;;;;0.40;0.40;;;;;;;;;;5080674;28;20191;-85
2023/05/27 11:07:26;;;;;;;0.40;0.40;;;;;;;;;;5080320;28;20175;-84
2023/05/27 11:09:54;;;;;;;0.30;0.30;;;;;;;;;;5080189;28;20224;-84
2023/05/27 11:12:21;;;;;;;0.43;0.43;;;;;;;;;;5095798;28;20271;-84
2023/05/27 11:14:48;;;;;;;0.30;0.30;;;;;;;;;;5101691;28;20611;-83
2023/05/27 11:17:15;;;;;;;0.27;0.27;;;;;;;;;;5102041;28;20699;-84
2023/05/27 11:19:41;;;;;;;0.30;0.30;;;;;;;;;;5101878;28;20209;-84
2023/05/27 11:22:10;;;;;;;0.30;0.30;;;;;;;;;;5109304;28;20186;-80
2023/05/27 11:24:37;;;;;;;0.40;0.40;;;;;;;;;;5114899;28;20173;-81
2023/05/27 11:27:14;;;;;;;0.30;0.30;;;;;;;;;;5115241;28;20173;-81
2023/05/27 11:29:40;;;;;;;0.40;0.40;;;;;;;;;;5122457;28;20188;-81
2023/05/27 11:32:07;;;;;;;0.50;0.50;;;;;;;;;;5133004;28;20311;-80
2023/05/27 11:34:36;;;;;;;0.40;0.40;;;;;;;;;;5135165;28;20184;-82
2023/05/27 11:37:07;;;;;;;0.40;0.40;;;;;;;;;;5119550;28;20226;-83
2023/05/27 11:39:33;;;;;;;0.47;0.47;;;;;;;;;;5120967;28;20201;-83
2023/05/27 11:41:59;;;;;;;0.40;0.40;;;;;;;;;;5120274;28;20178;-83
2023/05/27 11:44:26;;;;;;;0.40;0.40;;;;;;;;;;5132802;28;20243;-81
2023/05/27 11:46:52;;;;;;;0.40;0.40;;;;;;;;;;5135179;28;20173;-80
2023/05/27 11:49:19;;;;;;;0.30;0.30;;;;;;;;;;5132557;28;20178;-80
2023/05/27 11:51:49;;;;;;;0.50;0.50;;;;;;;;;;5114818;28;20184;-83
2023/05/27 11:54:17;;;;;;;0.40;0.40;;;;;;;;;;5111595;28;20215;-84
2023/05/27 11:56:43;;;;;;;0.40;0.40;;;;;;;;;;5116902;28;20175;-84
2023/05/27 11:59:09;;;;;;;0.33;0.33;;;;;;;;;;5116089;28;20169;-82
2023/05/27 12:01:35;;;;;;;0.47;0.47;;;;;;;;;;5118608;28;20223;-83
2023/05/27 12:04:01;;;;;;;0.30;0.30;;;;;;;;;;5119135;28;20193;-83
2023/05/27 12:06:27;;;;;;;0.30;0.30;;;;;;;;;;5116310;28;20169;-83
2023/05/27 12:08:53;;;;;;;0.40;0.40;;;;;;;;;;5116701;28;20245;-83
2023/05/27 12:11:19;;;;;;;0.30;0.30;;;;;;;;;;5114754;28;20190;-83
2023/05/27 12:13:45;;;;;;;0.40;0.40;;;;;;;;;;5119935;28;20261;-82
2023/05/27 12:16:11;;;;;;;0.33;0.33;;;;;;;;;;5116562;28;20230;-84
2023/05/27 12:18:38;;;;;;;0.40;0.40;;;;;;;;;;5116569;28;20177;-83
2023/05/27 12:21:04;;;;;;;0.43;0.43;;;;;;;;;;5119279;28;20204;-84
2023/05/27 12:23:30;;;;;;;0.27;0.27;;;;;;;;;;5120979;28;20169;-83
2023/05/27 12:25:56;;;;;;;0.40;0.40;;;;;;;;;;5121133;28;20173;-82
2023/05/27 12:28:22;;;;;;;0.20;0.20;;;;;;;;;;5120353;28;20192;-81
2023/05/27 12:30:48;;;;;;;0.30;0.30;;;;;;;;;;5120178;28;20204;-83
2023/05/27 12:33:14;;;;;;;0.30;0.30;;;;;;;;;;5119835;28;20300;-82
2023/05/27 12:35:41;;;;;;;0.30;0.30;;;;;;;;;;5119496;28;20169;-83
2023/05/27 12:38:07;;;;;;;0.30;0.30;;;;;;;;;;5120007;28;20180;-83
2023/05/27 12:40:33;;;;;;;0.37;0.37;;;;;;;;;;5118097;28;20228;-84
2023/05/27 12:42:59;;;;;;;0.47;0.47;;;;;;;;;;5118702;28;20577;-82
2023/05/27 12:45:25;;;;;;;0.30;0.30;;;;;;;;;;5117144;28;20176;-81
2023/05/27 12:47:52;;;;;;;0.23;0.23;;;;;;;;;;5119283;28;20659;-82
2023/05/27 12:50:18;;;;;;;0.37;0.37;;;;;;;;;;5117560;28;20631;-86
2023/05/27 12:52:46;;;;;;;0.30;0.30;;;;;;;;;;5111312;28;20197;-82
2023/05/27 12:55:12;;;;;;;0.43;0.43;;;;;;;;;;5102940;28;20178;-82
2023/05/27 12:57:38;;;;;;;0.30;0.30;;;;;;;;;;5112922;28;20177;-82
2023/05/27 13:00:04;;;;;;;0.20;0.20;;;;;;;;;;5100413;28;20192;-82
2023/05/27 13:02:30;;;;;;;0.20;0.20;;;;;;;;;;5110294;28;20185;-82
2023/05/27 13:04:56;;;;;;;0.40;0.40;;;;;;;;;;5101550;28;20182;-82
2023/05/27 13:07:23;;;;;;;0.20;0.20;;;;;;;;;;5088212;28;20181;-82
2023/05/27 13:09:48;;;;;;;0.30;0.30;;;;;;;;;;5089583;28;20195;-82
2023/05/27 13:12:14;;;;;;;0.50;0.50;;;;;;;;;;5096078;28;20177;-82
2023/05/27 13:14:42;;;;;;;0.30;0.30;;;;;;;;;;5103088;28;20714;-83
2023/05/27 13:17:08;;;;;;;0.40;0.40;;;;;;;;;;5094632;28;20188;-83
2023/05/27 13:19:34;;;;;;;0.37;0.37;;;;;;;;;;5111718;28;20281;-84
2023/05/27 13:22:00;;;;;;;0.30;0.30;;;;;;;;;;5104152;28;20200;-81
2023/05/27 13:24:26;;;;;;;0.30;0.30;;;;;;;;;;5104967;28;20189;-82
2023/05/27 13:26:52;;;;;;;0.50;0.50;;;;;;;;;;5111649;28;20922;-82
2023/05/27 13:29:19;;;;;;;0.40;0.40;;;;;;;;;;5096567;28;20245;-83
2023/05/27 13:31:46;;;;;;;0.40;0.40;;;;;;;;;;5096139;28;20173;-81
2023/05/27 13:34:12;;;;;;;0.37;0.37;;;;;;;;;;5096429;28;20304;-84
2023/05/27 13:36:38;;;;;;;0.37;0.37;;;;;;;;;;5096092;28;20174;-82
2023/05/27 13:39:04;;;;;;;0.30;0.30;;;;;;;;;;5109773;28;20193;-84
2023/05/27 13:41:30;;;;;;;0.30;0.30;;;;;;;;;;5118180;28;20245;-85
2023/05/27 13:43:56;;;;;;;0.23;0.23;;;;;;;;;;5118601;28;20270;-88
2023/05/27 13:46:22;;;;;;;0.30;0.30;;;;;;;;;;5118773;28;20224;-88
2023/05/27 13:48:48;;;;;;;0.30;0.30;;;;;;;;;;5105868;28;20545;-82
2023/05/27 13:51:14;;;;;;;0.33;0.33;;;;;;;;;;5096421;28;20238;-83
2023/05/27 13:53:40;;;;;;;0.30;0.30;;;;;;;;;;5095287;28;20306;-82
2023/05/27 13:56:06;;;;;;;0.30;0.30;;;;;;;;;;5096312;28;20180;-81
2023/05/27 13:58:32;;;;;;;0.37;0.37;;;;;;;;;;5095335;28;20177;-82
2023/05/27 14:00:58;;;;;;;0.40;0.40;;;;;;;;;;5095879;28;20232;-82
2023/05/27 14:03:24;;;;;;;0.40;0.40;;;;;;;;;;5097246;28;20200;-82
2023/05/27 14:05:51;;;;;;;0.40;0.40;;;;;;;;;;5097064;28;20705;-85
2023/05/27 14:08:17;;;;;;;0.27;0.27;;;;;;;;;;5096818;28;20243;-83
2023/05/27 14:10:43;;;;;;;0.40;0.40;;;;;;;;;;5095520;28;20193;-83
2023/05/27 14:13:09;;;;;;;0.30;0.30;;;;;;;;;;5095515;28;20285;-81
2023/05/27 14:15:35;;;;;;;0.30;0.30;;;;;;;;;;5095526;28;20621;-82
2023/05/27 14:18:01;;;;;;;0.30;0.30;;;;;;;;;;5095625;28;20185;-84
2023/05/27 14:20:27;;;;;;;0.40;0.40;;;;;;;;;;5095285;28;20213;-84
2023/05/27 14:22:54;;;;;;;0.30;0.30;;;;;;;;;;5095640;28;20191;-83
2023/05/27 14:25:20;;;;;;;0.40;0.40;;;;;;;;;;5095399;28;20632;-83
2023/05/27 14:27:46;;;;;;;0.30;0.30;;;;;;;;;;5095886;28;20185;-82
2023/05/27 14:30:12;;;;;;;0.30;0.30;;;;;;;;;;5095254;28;20692;-83
2023/05/27 14:32:38;;;;;;;0.30;0.30;;;;;;;;;;5097424;28;20209;-84
2023/05/27 14:35:05;;;;;;;0.27;0.27;;;;;;;;;;5096790;28;20173;-82
2023/05/27 14:37:31;;;;;;;0.30;0.30;;;;;;;;;;5094937;28;20628;-81
2023/05/27 14:39:57;;;;;;;0.37;0.37;;;;;;;;;;5095545;28;20335;-83
2023/05/27 14:42:23;;;;;;;0.40;0.40;;;;;;;;;;5096962;28;20181;-84
2023/05/27 14:44:49;;;;;;;0.30;0.30;;;;;;;;;;5095805;28;20621;-85